createdAt,value
2019-04-29T00:01:54.226Z,23.60
2019-04-29T00:04:21.829Z,23.60
2019-04-29T00:06:49.406Z,23.70
2019-04-29T00:09:18.069Z,23.50
2019-04-29T00:11:45.682Z,23.70
2019-04-29T00:14:13.234Z,23.30
2019-04-29T00:16:48.225Z,23.40
2019-04-29T00:19:36.267Z,23.70
2019-04-29T00:22:04.226Z,24.00
2019-04-29T00:24:31.822Z,23.20
2019-04-29T00:26:59.393Z,23.90
2019-04-29T00:29:27.005Z,23.30
2019-04-29T00:31:54.563Z,24.00
2019-04-29T00:34:22.195Z,23.20
2019-04-29T00:36:51.418Z,23.50
2019-04-29T00:39:20.623Z,23.20
2019-04-29T00:41:58.874Z,23.10
2019-04-29T00:44:26.465Z,23.20
2019-04-29T00:46:54.016Z,23.40
2019-04-29T00:49:21.620Z,23.20
2019-04-29T00:51:49.203Z,23.00
2019-04-29T00:54:18.454Z,23.40
2019-04-29T00:56:46.044Z,23.10
2019-04-29T00:59:13.618Z,23.10
2019-04-29T01:01:41.218Z,23.10
2019-04-29T01:04:08.949Z,23.10
2019-04-29T01:06:36.647Z,23.30
2019-04-29T01:09:06.805Z,22.90
2019-04-29T01:11:34.415Z,22.90
2019-04-29T01:14:01.993Z,22.90
2019-04-29T01:16:29.581Z,23.10
2019-04-29T01:18:57.167Z,23.00
2019-04-29T01:21:24.782Z,22.90
2019-04-29T01:23:52.347Z,22.80
2019-04-29T01:26:36.601Z,23.10
2019-04-29T01:29:05.849Z,23.10
2019-04-29T01:31:33.504Z,23.00
2019-04-29T01:34:02.710Z,23.20
2019-04-29T01:36:31.951Z,22.80
2019-04-29T01:39:01.222Z,23.40
2019-04-29T01:41:39.491Z,23.10
2019-04-29T01:44:11.790Z,23.20
2019-04-29T01:46:39.402Z,23.60
2019-04-29T01:49:07.013Z,22.90
2019-04-29T01:51:34.577Z,23.10
2019-04-29T01:54:02.191Z,23.00
2019-04-29T01:56:29.859Z,22.90
2019-04-29T01:58:57.436Z,23.30
2019-04-29T02:01:25.104Z,22.90
2019-04-29T02:03:52.711Z,23.00
2019-04-29T02:06:20.257Z,23.10
2019-04-29T02:08:49.743Z,23.10
2019-04-29T02:11:17.353Z,23.00
2019-04-29T02:13:44.952Z,22.70
2019-04-29T02:16:12.594Z,23.10
2019-04-29T02:18:40.182Z,22.70
2019-04-29T02:21:07.794Z,22.80
2019-04-29T02:23:49.404Z,22.60
2019-04-29T02:26:16.994Z,22.90
2019-04-29T02:28:44.557Z,22.80
2019-04-29T02:31:29.971Z,22.60
2019-04-29T02:33:57.537Z,22.90
2019-04-29T02:36:29.347Z,22.60
2019-04-29T02:39:01.791Z,22.70
2019-04-29T02:41:36.758Z,22.60
2019-04-29T02:44:05.998Z,22.60
2019-04-29T02:46:33.691Z,22.60
2019-04-29T02:49:01.261Z,22.60
2019-04-29T02:51:45.823Z,22.90
2019-04-29T02:54:13.391Z,22.70
2019-04-29T02:56:42.640Z,22.90
2019-04-29T02:59:11.947Z,22.80
2019-04-29T03:01:56.602Z,22.70
2019-04-29T03:04:25.828Z,22.60
2019-04-29T03:06:53.401Z,22.50
2019-04-29T03:09:21.023Z,22.60
2019-04-29T03:11:48.618Z,22.60
2019-04-29T03:14:16.182Z,22.40
2019-04-29T03:16:43.785Z,22.80
2019-04-29T03:19:15.987Z,22.70
2019-04-29T03:21:48.042Z,22.60
2019-04-29T03:24:15.649Z,22.50
2019-04-29T03:26:43.195Z,22.60
2019-04-29T03:29:22.541Z,23.00
2019-04-29T03:31:50.977Z,22.60
2019-04-29T03:34:18.586Z,22.50
2019-04-29T03:36:46.207Z,22.70
2019-04-29T03:39:13.808Z,22.60
2019-04-29T03:41:41.441Z,23.00
2019-04-29T03:44:09.083Z,22.70
2019-04-29T03:46:36.711Z,22.70
2019-04-29T03:49:04.284Z,22.60
2019-04-29T03:51:31.903Z,22.60
2019-04-29T03:53:59.510Z,22.70
2019-04-29T03:56:27.116Z,22.60
2019-04-29T03:58:54.694Z,22.80
2019-04-29T04:01:23.906Z,22.60
2019-04-29T04:03:53.192Z,23.00
2019-04-29T04:06:22.389Z,22.60
2019-04-29T04:09:05.677Z,22.70
2019-04-29T04:11:20.988Z,22.70
2019-04-29T04:13:48.539Z,22.60
2019-04-29T04:16:17.776Z,22.60
2019-04-29T04:18:45.392Z,22.70
2019-04-29T04:21:12.966Z,22.40
2019-04-29T04:23:40.539Z,22.60
2019-04-29T04:26:08.178Z,22.50
2019-04-29T04:28:35.733Z,22.50
2019-04-29T04:31:06.755Z,22.60
2019-04-29T04:33:32.711Z,22.70
2019-04-29T04:36:00.306Z,22.60
2019-04-29T04:38:27.911Z,22.80
2019-04-29T04:41:03.197Z,22.50
2019-04-29T04:43:30.798Z,22.70
2019-04-29T04:45:58.369Z,22.60
2019-04-29T04:48:25.956Z,22.60
2019-04-29T04:50:53.521Z,22.60
2019-04-29T04:53:21.123Z,22.90
2019-04-29T04:55:49.974Z,22.60
2019-04-29T04:58:17.562Z,22.60
2019-04-29T05:00:45.142Z,23.30
2019-04-29T05:03:12.701Z,22.40
2019-04-29T05:05:42.725Z,22.80
2019-04-29T05:08:09.605Z,22.70
2019-04-29T05:10:37.235Z,22.60
2019-04-29T05:13:04.795Z,22.30
2019-04-29T05:15:32.373Z,22.50
2019-04-29T05:18:00.030Z,22.60
2019-04-29T05:20:27.649Z,22.80
2019-04-29T05:23:01.017Z,22.70
2019-04-29T05:25:31.630Z,22.70
2019-04-29T05:27:59.278Z,23.80
2019-04-29T05:30:27.704Z,24.50
2019-04-29T05:32:55.297Z,24.50
2019-04-29T05:35:24.952Z,24.50
2019-04-29T05:38:05.800Z,24.40
2019-04-29T05:40:38.050Z,24.50
2019-04-29T05:43:06.816Z,24.40
2019-04-29T05:45:46.369Z,24.40
2019-04-29T05:48:15.863Z,24.30
2019-04-29T05:51:00.173Z,24.30
2019-04-29T05:53:29.487Z,24.30
2019-04-29T05:55:57.053Z,24.20
2019-04-29T05:58:24.658Z,24.20
2019-04-29T06:00:53.908Z,24.20
2019-04-29T06:03:21.513Z,24.20
2019-04-29T06:05:49.095Z,24.20
2019-04-29T06:08:16.767Z,23.90
2019-04-29T06:10:45.958Z,23.90
2019-04-29T06:13:13.566Z,24.20
2019-04-29T06:15:41.226Z,24.20
2019-04-29T06:18:08.785Z,24.40
2019-04-29T06:20:36.471Z,24.30
2019-04-29T06:23:04.360Z,24.30
2019-04-29T06:25:31.984Z,24.40
2019-04-29T06:27:59.568Z,24.30
2019-04-29T06:30:27.272Z,24.20
2019-04-29T06:32:54.878Z,24.30
2019-04-29T06:35:22.460Z,24.30
2019-04-29T06:37:50.078Z,24.30
2019-04-29T06:40:17.678Z,24.30
2019-04-29T06:42:45.238Z,24.30
2019-04-29T06:45:12.914Z,24.30
2019-04-29T06:47:40.689Z,24.30
2019-04-29T06:50:08.301Z,24.30
2019-04-29T06:52:35.859Z,24.30
2019-04-29T06:55:03.747Z,24.30
2019-04-29T06:57:31.326Z,24.30
2019-04-29T06:59:58.884Z,24.30
2019-04-29T07:02:26.486Z,24.30
2019-04-29T07:04:54.080Z,24.80
2019-04-29T07:07:21.628Z,24.30
2019-04-29T07:09:49.224Z,24.20
2019-04-29T07:12:16.788Z,24.30
2019-04-29T07:14:44.373Z,24.30
2019-04-29T07:17:11.992Z,24.20
2019-04-29T07:19:39.565Z,24.30
2019-04-29T07:22:07.130Z,24.20
2019-04-29T07:24:34.735Z,24.30
2019-04-29T07:27:04.318Z,24.30
2019-04-29T07:29:32.716Z,24.30
2019-04-29T07:32:04.699Z,24.20
2019-04-29T07:34:33.704Z,23.90
2019-04-29T07:36:59.630Z,24.30
2019-04-29T07:39:31.687Z,24.20
2019-04-29T07:41:56.552Z,24.30
2019-04-29T07:44:28.744Z,24.20
2019-04-29T07:47:00.216Z,24.30
2019-04-29T07:49:25.978Z,24.20
2019-04-29T07:51:53.562Z,23.70
2019-04-29T07:54:21.203Z,23.70
2019-04-29T07:56:48.790Z,24.50
2019-04-29T07:59:16.384Z,24.30
2019-04-29T08:01:44.049Z,23.80
2019-04-29T08:04:11.646Z,24.20
2019-04-29T08:06:42.816Z,23.40
2019-04-29T08:09:09.738Z,23.70
2019-04-29T08:11:37.631Z,23.70
2019-04-29T08:14:05.195Z,23.50
2019-04-29T08:16:32.847Z,24.20
2019-04-29T08:19:00.406Z,23.50
2019-04-29T08:21:28.002Z,23.20
2019-04-29T08:23:55.702Z,23.60
2019-04-29T08:26:23.339Z,23.60
2019-04-29T08:28:52.882Z,23.30
2019-04-29T08:31:21.033Z,23.70
2019-04-29T08:33:49.773Z,23.70
2019-04-29T08:36:17.408Z,23.40
2019-04-29T08:38:45.015Z,23.20
2019-04-29T08:41:12.606Z,23.30
2019-04-29T08:43:47.842Z,23.50
2019-04-29T08:46:32.426Z,23.20
2019-04-29T08:49:01.212Z,23.20
2019-04-29T08:51:29.351Z,23.10
2019-04-29T08:53:56.938Z,23.20
2019-04-29T08:56:24.509Z,23.50
2019-04-29T08:58:52.119Z,23.00
2019-04-29T09:01:19.796Z,23.10
2019-04-29T09:03:47.355Z,23.10
2019-04-29T09:06:14.923Z,23.10
2019-04-29T09:08:54.049Z,23.10
2019-04-29T09:11:12.988Z,23.30
2019-04-29T09:13:41.147Z,22.90
2019-04-29T09:16:08.919Z,23.40
2019-04-29T09:18:36.533Z,22.80
2019-04-29T09:21:04.112Z,22.90
2019-04-29T09:23:33.330Z,23.30
2019-04-29T09:26:03.287Z,23.10
2019-04-29T09:28:31.099Z,22.90
2019-04-29T09:30:58.673Z,22.80
2019-04-29T09:33:26.253Z,22.90
2019-04-29T09:35:53.863Z,22.90
2019-04-29T09:38:21.461Z,22.80
2019-04-29T09:40:54.481Z,22.70
2019-04-29T09:43:36.944Z,22.90
2019-04-29T09:46:18.429Z,23.00
2019-04-29T09:48:44.347Z,22.50
2019-04-29T09:51:17.924Z,22.80
2019-04-29T09:53:41.273Z,22.70
2019-04-29T09:56:08.854Z,22.70
2019-04-29T09:58:36.454Z,22.60
2019-04-29T10:01:23.757Z,22.50
2019-04-29T10:03:55.754Z,23.00
2019-04-29T10:06:36.714Z,22.70
2019-04-29T10:09:05.976Z,23.20
2019-04-29T10:11:33.547Z,22.50
2019-04-29T10:14:01.123Z,22.60
2019-04-29T10:16:37.168Z,22.60
2019-04-29T10:19:09.349Z,22.90
2019-04-29T10:21:36.968Z,22.60
2019-04-29T10:24:04.801Z,22.50
2019-04-29T10:26:32.451Z,22.50
2019-04-29T10:29:01.712Z,22.90
2019-04-29T10:31:29.471Z,22.60
2019-04-29T10:33:57.104Z,22.90
2019-04-29T10:36:26.336Z,23.00
2019-04-29T10:38:55.783Z,22.90
2019-04-29T10:41:24.986Z,23.00
2019-04-29T10:44:09.433Z,23.30
2019-04-29T10:46:44.390Z,23.00
2019-04-29T10:49:21.448Z,22.40
2019-04-29T10:51:49.037Z,22.70
2019-04-29T10:54:16.636Z,22.50
2019-04-29T10:56:44.215Z,22.80
2019-04-29T10:59:11.782Z,22.60
2019-04-29T11:01:42.669Z,22.40
2019-04-29T11:04:10.250Z,22.50
2019-04-29T11:06:37.870Z,22.50
2019-04-29T11:09:16.001Z,22.10
2019-04-29T11:11:43.942Z,22.30
2019-04-29T11:14:11.544Z,22.70
2019-04-29T11:16:46.597Z,22.30
2019-04-29T11:19:08.828Z,22.40
2019-04-29T11:21:38.909Z,22.10
2019-04-29T11:24:07.353Z,23.00
2019-04-29T11:26:36.585Z,22.10
2019-04-29T11:29:06.266Z,22.60
2019-04-29T11:31:35.410Z,22.20
2019-04-29T11:34:19.924Z,22.50
2019-04-29T11:36:47.892Z,22.20
2019-04-29T11:39:15.584Z,22.10
2019-04-29T11:41:43.472Z,22.40
2019-04-29T11:44:11.080Z,22.20
2019-04-29T11:46:38.650Z,22.30
2019-04-29T11:49:06.633Z,22.30
2019-04-29T11:51:57.043Z,22.40
2019-04-29T11:54:11.866Z,22.50
2019-04-29T11:56:39.605Z,22.70
2019-04-29T11:59:25.006Z,22.50
2019-04-29T12:01:54.436Z,22.10
2019-04-29T12:04:28.602Z,22.30
2019-04-29T12:06:57.783Z,22.40
2019-04-29T12:09:29.984Z,22.50
2019-04-29T12:11:54.654Z,22.60
2019-04-29T12:14:26.826Z,22.30
2019-04-29T12:16:56.088Z,22.10
2019-04-29T12:19:27.710Z,22.20
2019-04-29T12:21:55.679Z,22.30
2019-04-29T12:24:23.306Z,23.00
2019-04-29T12:26:50.892Z,22.10
2019-04-29T12:29:19.540Z,22.10
2019-04-29T12:32:00.580Z,22.40
2019-04-29T12:34:32.492Z,22.50
2019-04-29T12:37:00.054Z,22.40
2019-04-29T12:39:43.536Z,22.10
2019-04-29T12:42:25.470Z,22.50
2019-04-29T12:44:54.714Z,22.40
2019-04-29T12:47:32.758Z,22.30
2019-04-29T12:50:00.356Z,22.00
2019-04-29T12:52:28.232Z,22.20
2019-04-29T12:54:55.783Z,22.70
2019-04-29T12:57:24.713Z,22.60
2019-04-29T12:59:54.504Z,22.70
2019-04-29T13:02:24.446Z,22.70
2019-04-29T13:04:59.811Z,22.90
2019-04-29T13:07:31.734Z,22.90
2019-04-29T13:10:07.044Z,23.00
2019-04-29T13:12:34.529Z,23.00
2019-04-29T13:15:12.645Z,23.00
2019-04-29T13:18:03.767Z,23.10
2019-04-29T13:20:26.450Z,23.10
2019-04-29T13:22:54.030Z,23.30
2019-04-29T13:25:21.624Z,23.30
2019-04-29T13:27:49.230Z,23.50
2019-04-29T13:30:16.838Z,23.40
2019-04-29T13:32:44.454Z,23.50
2019-04-29T13:35:13.062Z,23.90
2019-04-29T13:37:40.788Z,23.80
2019-04-29T13:40:08.489Z,24.40
2019-04-29T13:42:36.185Z,24.40
2019-04-29T13:45:09.787Z,24.50
2019-04-29T13:47:50.317Z,24.50
2019-04-29T13:50:39.379Z,24.50
2019-04-29T13:53:02.743Z,24.50
2019-04-29T13:55:47.923Z,24.50
2019-04-29T13:57:59.682Z,24.50
2019-04-29T14:00:38.083Z,24.50
2019-04-29T14:03:11.398Z,25.10
2019-04-29T14:05:37.795Z,25.40
2019-04-29T14:08:05.766Z,25.50
2019-04-29T14:10:33.310Z,25.70
2019-04-29T14:13:11.640Z,25.40
2019-04-29T14:15:33.873Z,25.70
2019-04-29T14:17:59.537Z,25.80
2019-04-29T14:20:27.119Z,25.40
2019-04-29T14:22:54.704Z,25.00
2019-04-29T14:25:22.311Z,24.90
2019-04-29T14:27:49.877Z,24.90
2019-04-29T14:30:21.009Z,25.00
2019-04-29T14:32:50.446Z,24.80
2019-04-29T14:35:22.461Z,24.80
2019-04-29T14:37:55.421Z,24.90
2019-04-29T14:40:19.481Z,25.30
2019-04-29T14:42:57.391Z,24.80
2019-04-29T14:45:22.757Z,25.00
2019-04-29T14:47:51.951Z,25.80
2019-04-29T14:50:20.719Z,25.00
2019-04-29T14:52:49.319Z,25.00
2019-04-29T14:55:19.925Z,25.20
2019-04-29T14:57:47.150Z,25.30
2019-04-29T15:00:19.640Z,25.30
2019-04-29T15:02:45.669Z,25.30
2019-04-29T15:05:14.081Z,25.40
2019-04-29T15:07:41.931Z,25.50
2019-04-29T15:10:09.569Z,25.40
2019-04-29T15:13:01.929Z,25.50
2019-04-29T15:15:29.891Z,25.30
2019-04-29T15:17:57.146Z,25.10
2019-04-29T15:20:38.289Z,25.50
2019-04-29T15:23:05.877Z,25.70
2019-04-29T15:25:33.474Z,25.60
2019-04-29T15:28:01.080Z,25.60
2019-04-29T15:30:31.676Z,25.30
2019-04-29T15:32:59.674Z,26.00
2019-04-29T15:35:27.507Z,25.80
2019-04-29T15:37:55.090Z,26.20
2019-04-29T15:40:26.269Z,25.90
2019-04-29T15:42:53.528Z,25.70
2019-04-29T15:45:21.469Z,27.30
2019-04-29T15:47:49.047Z,26.90
2019-04-29T15:50:19.056Z,26.60
2019-04-29T15:52:46.011Z,26.80
2019-04-29T15:55:13.586Z,27.00
2019-04-29T15:57:49.259Z,28.10
2019-04-29T16:00:21.180Z,29.60
2019-04-29T16:02:41.587Z,29.50
2019-04-29T16:05:16.723Z,29.60
2019-04-29T16:07:55.573Z,39.60
2019-04-29T16:10:38.909Z,32.50
2019-04-29T16:13:08.148Z,29.80
2019-04-29T16:15:36.002Z,29.80
2019-04-29T16:18:05.458Z,29.70
2019-04-29T16:20:32.907Z,29.80
2019-04-29T16:23:01.031Z,29.80
2019-04-29T16:25:29.752Z,29.20
2019-04-29T16:27:57.352Z,29.70
2019-04-29T16:30:26.063Z,29.20
2019-04-29T16:32:54.233Z,29.30
2019-04-29T16:35:23.645Z,29.20
2019-04-29T16:37:51.209Z,28.70
2019-04-29T16:40:18.857Z,28.70
2019-04-29T16:42:51.178Z,29.70
2019-04-29T16:45:19.187Z,29.70
2019-04-29T16:47:48.628Z,29.30
2019-04-29T16:50:16.142Z,29.70
2019-04-29T16:52:44.486Z,29.50
2019-04-29T16:55:12.339Z,30.00
2019-04-29T16:57:39.902Z,29.70
2019-04-29T17:00:13.824Z,29.70
2019-04-29T17:02:38.490Z,29.70
2019-04-29T17:05:06.397Z,27.20
2019-04-29T17:07:34.029Z,28.40
2019-04-29T17:10:19.514Z,27.70
2019-04-29T17:12:48.842Z,27.70
2019-04-29T17:15:24.816Z,28.40
2019-04-29T17:17:45.887Z,28.30
2019-04-29T17:20:13.490Z,28.20
2019-04-29T17:22:43.111Z,28.20
2019-04-29T17:25:10.593Z,28.20
2019-04-29T17:27:52.078Z,28.20
2019-04-29T17:30:27.828Z,28.10
2019-04-29T17:33:00.365Z,33.60
2019-04-29T17:35:30.425Z,34.80
2019-04-29T17:37:58.034Z,33.80
2019-04-29T17:40:26.062Z,34.30
2019-04-29T17:43:04.812Z,31.30
2019-04-29T17:45:38.492Z,32.10
2019-04-29T17:48:10.669Z,31.40
2019-04-29T17:50:46.653Z,30.30
2019-04-29T17:53:15.206Z,30.00
2019-04-29T17:55:50.370Z,29.70
2019-04-29T17:58:19.934Z,31.70
2019-04-29T18:00:59.575Z,31.40
2019-04-29T18:03:29.135Z,30.40
2019-04-29T18:05:58.345Z,30.00
2019-04-29T18:08:44.878Z,30.00
2019-04-29T18:11:12.887Z,29.70
2019-04-29T18:13:40.519Z,29.40
2019-04-29T18:16:17.439Z,29.40
2019-04-29T18:18:57.628Z,29.40
2019-04-29T18:21:43.484Z,29.30
2019-04-29T18:24:12.146Z,29.40
2019-04-29T18:26:52.747Z,29.40
2019-04-29T18:29:19.883Z,29.40
2019-04-29T18:31:47.479Z,29.40
2019-04-29T18:34:15.384Z,29.30
2019-04-29T18:36:43.024Z,29.30
2019-04-29T18:39:12.271Z,29.30
2019-04-29T18:41:39.859Z,29.30
2019-04-29T18:44:07.472Z,29.30
2019-04-29T18:46:35.288Z,29.30
2019-04-29T18:49:04.749Z,29.30
2019-04-29T18:51:32.330Z,29.30
2019-04-29T18:53:59.886Z,29.80
2019-04-29T18:56:27.548Z,29.30
2019-04-29T18:58:55.540Z,29.80
2019-04-29T19:01:24.014Z,29.30
2019-04-29T19:03:57.433Z,29.30
2019-04-29T19:06:25.164Z,29.30
2019-04-29T19:08:54.965Z,29.30
2019-04-29T19:11:30.643Z,29.80
2019-04-29T19:13:52.084Z,29.30
2019-04-29T19:16:22.060Z,29.30
2019-04-29T19:18:52.096Z,29.30
2019-04-29T19:21:18.560Z,29.30
2019-04-29T19:23:46.154Z,29.30
2019-04-29T19:26:13.758Z,29.30
2019-04-29T19:28:41.331Z,29.30
2019-04-29T19:31:09.865Z,29.30
2019-04-29T19:33:39.358Z,29.30
2019-04-29T19:36:09.152Z,29.30
2019-04-29T19:38:36.310Z,29.30
2019-04-29T19:41:03.875Z,29.30
2019-04-29T19:43:31.494Z,29.30
2019-04-29T19:45:59.072Z,29.40
2019-04-29T19:48:28.401Z,29.30
2019-04-29T19:51:14.083Z,29.20
2019-04-29T19:53:25.424Z,29.20
2019-04-29T19:56:02.228Z,29.20
2019-04-29T19:58:28.605Z,29.20
2019-04-29T20:00:52.036Z,29.20
2019-04-29T20:03:24.482Z,29.20
2019-04-29T20:05:54.323Z,29.20
2019-04-29T20:08:46.607Z,29.80
2019-04-29T20:10:53.235Z,29.20
2019-04-29T20:13:30.271Z,29.10
2019-04-29T20:15:52.493Z,29.70
2019-04-29T20:18:26.202Z,29.20
2019-04-29T20:20:53.131Z,29.20
2019-04-29T20:23:26.360Z,29.20
2019-04-29T20:25:50.334Z,29.20
2019-04-29T20:28:21.152Z,29.20
2019-04-29T20:30:50.535Z,29.20
2019-04-29T20:33:16.996Z,29.20
2019-04-29T20:35:48.119Z,29.20
2019-04-29T20:38:15.714Z,29.20
2019-04-29T20:40:43.714Z,29.20
2019-04-29T20:43:11.516Z,29.10
2019-04-29T20:45:39.263Z,29.20
2019-04-29T20:48:10.951Z,29.10
2019-04-29T20:50:36.332Z,29.10
2019-04-29T20:53:15.641Z,29.20
2019-04-29T20:55:43.603Z,29.10
2019-04-29T20:58:11.341Z,29.10
2019-04-29T21:00:39.851Z,29.10
2019-04-29T21:03:09.446Z,29.20
2019-04-29T21:05:47.452Z,29.10
2019-04-29T21:08:14.440Z,29.20
2019-04-29T21:10:38.022Z,29.10
2019-04-29T21:13:21.903Z,29.10
2019-04-29T21:15:55.498Z,29.10
2019-04-29T21:18:25.110Z,29.10
2019-04-29T21:20:52.607Z,29.10
2019-04-29T21:23:20.186Z,29.10
2019-04-29T21:25:47.814Z,29.20
2019-04-29T21:28:15.381Z,29.10
2019-04-29T21:30:45.126Z,29.10
2019-04-29T21:33:18.271Z,29.10
2019-04-29T21:35:49.552Z,29.10
2019-04-29T21:38:17.945Z,29.20
2019-04-29T21:40:48.392Z,29.10
2019-04-29T21:43:17.841Z,29.20
2019-04-29T21:45:48.355Z,29.10
2019-04-29T21:48:14.928Z,29.10
2019-04-29T21:50:42.477Z,29.10
2019-04-29T21:53:10.090Z,29.10
2019-04-29T21:55:37.689Z,29.10
2019-04-29T21:58:05.278Z,29.00
2019-04-29T22:00:34.922Z,29.20
2019-04-29T22:03:02.352Z,29.10
2019-04-29T22:05:29.943Z,29.10
2019-04-29T22:07:57.510Z,29.10
2019-04-29T22:10:29.003Z,29.10
2019-04-29T22:12:58.309Z,29.10
2019-04-29T22:15:32.882Z,29.10
2019-04-29T22:17:58.511Z,29.10
2019-04-29T22:20:23.198Z,29.10
2019-04-29T22:22:50.759Z,29.00
2019-04-29T22:25:18.355Z,29.10
2019-04-29T22:27:46.022Z,29.00
2019-04-29T22:30:16.785Z,29.10
2019-04-29T22:32:43.127Z,29.10
2019-04-29T22:35:10.757Z,29.10
2019-04-29T22:37:38.463Z,29.10
2019-04-29T22:40:06.636Z,29.10
2019-04-29T22:42:37.466Z,29.10
2019-04-29T22:45:08.355Z,29.10
2019-04-29T22:47:37.225Z,29.10
2019-04-29T22:50:04.873Z,29.10
2019-04-29T22:52:32.624Z,29.10
2019-04-29T22:55:01.779Z,29.70
2019-04-29T22:57:31.630Z,29.10
2019-04-29T22:59:59.745Z,29.10
2019-04-29T23:02:28.876Z,29.00
2019-04-29T23:04:56.560Z,29.20
2019-04-29T23:07:24.151Z,29.10
2019-04-29T23:09:51.768Z,29.10
2019-04-29T23:12:19.356Z,29.10
2019-04-29T23:14:46.955Z,29.10
2019-04-29T23:17:15.806Z,29.00
2019-04-29T23:19:46.505Z,29.10
2019-04-29T23:22:32.901Z,29.00
2019-04-29T23:25:09.496Z,29.00
2019-04-29T23:27:37.183Z,29.10
2019-04-29T23:30:05.876Z,29.00
2019-04-29T23:32:35.105Z,29.00
2019-04-29T23:35:06.286Z,29.00
2019-04-29T23:37:32.863Z,29.00
2019-04-29T23:40:00.506Z,29.00
2019-04-29T23:42:28.126Z,29.00
2019-04-29T23:44:57.195Z,29.50
2019-04-29T23:47:25.760Z,29.00
2019-04-29T23:49:53.506Z,29.00
2019-04-29T23:52:21.100Z,29.00
2019-04-29T23:54:48.710Z,29.40
2019-04-29T23:57:23.523Z,29.00
